Disclaimer

Please do not use the information listed here in-flight or in-navigation, as they are not provided to us by the airports but are provided by volunteers, so they might be outdated.

Search


Regions


Airport information page

Radio informations:
Tower (TWR) - 118.1 MHz
OPS - 122.5 MHz
Ground (GND) - 121.9 MHz
Approach (APP) - 120.2 MHz

Airport informations:
Latitude: 20° 28' 07.20" S
Longitude: 054° 40' 21.00" W
Elevation: 1833 feet - 559 meters
Operating hours: 24 hour operations
Operating agency: Military-civil joint use airport
Timezone: UTC-4(-3DT)
Fuel: Jet A1, without icing nhibitor.

100/130 octane gasoline, leaded, MIL-L-5572F (GREEN)

Runway information:
06/24 - 8530 x 141 feet< - >2600 x 43 meters

Recent METARs:
SBCG 211600Z 07006KT 360V100 9999 SCT030 SCT100 29/21 Q1014
SBCG 211700Z 12006KT 020V180 9999 BKN035 FEW040TCU BKN080 29/21 Q1013
SBCG 211700Z 12006KT 020V180 9999 BKN035 FEW040TCU BKN080 29/21 Q1013

Airport on the map: